• Join FlightAware (Why Join?)
  • Login
  • US Flag 
Rudolph Flight #1: Arrived! 
07:01AM EST


 

Airport Tracker/Info


-or-


 

Live Flight TrackerFlight Track Log ✈ VRT51 ✈ 12-Aug-2013 ✈ KBWG - KERI

Flight Track Log - Related Links

Times and Time Zones

All times are in EDT time to prevent confusion due to time zone crossing. See the VRT51 flight status page for this flight to view local times or setup timezone preferences in your user account.

Time Position Orientation Groundspeed Altitude Reporting Facility
EDT Latitude Longitude Course Direction KTS MPH feet Rate Location/Type
01:06PM 36.8997 -86.3903 45° Northeast 341 392 3,100  Level Memphis Center
01:07PM 36.9558 -86.3200 45° Northeast 185 213 6,100 3,000 Climbing Memphis Center
01:08PM 37.0483 -86.2603 27° Northeast 313 360 9,700 3,000 Climbing Indianapolis Center
01:09PM 37.1364 -86.2042 27° Northeast 345 397 12,700 3,060 Climbing Indianapolis Center
01:10PM 37.2331 -86.1419 27° Northeast 378 435 16,100 3,240 Climbing Indianapolis Center
01:11PM 37.3342 -86.0781 27° Northeast 398 458 19,500 3,060 Climbing Indianapolis Center
01:12PM 37.4339 -86.0128 27° Northeast 399 459 22,500 2,700 Climbing Indianapolis Center
01:13PM 37.5547 -85.9356 27° Northeast 412 474 25,100 2,280 Climbing Indianapolis Center
01:14PM 37.6664 -85.8642 27° Northeast 432 497 27,200 1,740 Climbing Indianapolis Center
01:15PM 37.7756 -85.7925 27° Northeast 440 506 28,700 1,440 Climbing Indianapolis Center
01:16PM 37.8894 -85.7189 27° Northeast 449 517 30,200 1,320 Climbing Indianapolis Center
01:17PM 38.0069 -85.6417 27° Northeast 462 532 31,500 1,200 Climbing Indianapolis Center
01:18PM 38.1228 -85.5561 30° Northeast 477 549 32,800 1,200 Climbing Indianapolis Center
01:19PM 38.2219 -85.4353 44° Northeast 496 571 34,100 1,200 Climbing Indianapolis Center
01:20PM 38.3219 -85.3142 44° Northeast 494 568 35,400 1,260 Climbing Indianapolis Center
01:21PM 38.4392 -85.1706 44° Northeast 494 568 36,700 1,200 Climbing Indianapolis Center
01:22PM 38.5400 -85.0492 43° Northeast 495 570 37,900 600 Climbing Indianapolis Center
01:23PM 38.6411 -84.9239 44° Northeast 498 573 38,000  Climbing Indianapolis Center
01:24PM 38.7525 -84.7858 44° Northeast 504 580 38,000  Level Indianapolis Center
01:26PM 38.8544 -84.6611 44° Northeast 509 586 38,000 120 Level Indianapolis Center
01:27PM 38.9628 -84.5261 44° Northeast 510 587 38,300 600 Climbing Indianapolis Center
01:28PM 39.0636 -84.3989 44° Northeast 506 582 39,300 1,080 Climbing Indianapolis Center
01:29PM 39.1619 -84.2756 44° Northeast 496 571 40,600 780 Climbing Indianapolis Center
01:30PM 39.2569 -84.1561 44° Northeast 481 554 41,000 180 Climbing Indianapolis Center
01:31PM 39.3547 -84.0339 44° Northeast 486 559 41,000  Level Indianapolis Center
01:32PM 39.4608 -83.8975 45° Northeast 491 565 41,000  Level Indianapolis Center
01:33PM 39.5575 -83.7753 44° Northeast 496 571 41,000  Level Indianapolis Center
01:34PM 39.6553 -83.6517 44° Northeast 491 565 41,000  Level Indianapolis Center
01:35PM 39.7528 -83.5269 45° Northeast 490 564 41,000  Level Indianapolis Center
01:36PM 39.8508 -83.3992 45° Northeast 494 568 41,000  Level Indianapolis Center
01:37PM 39.9483 -83.2739 45° Northeast 494 568 41,000  Level Indianapolis Center
01:38PM 40.0675 -83.1181 45° Northeast 496 571 41,000  Level Indianapolis Center
01:39PM 40.1664 -82.9881 45° Northeast 498 573 41,000  Level Indianapolis Center
01:40PM 40.2658 -82.8589 45° Northeast 500 575 41,000  Level Indianapolis Center
01:41PM 40.3644 -82.7283 45° Northeast 500 575 41,000  Level Indianapolis Center
01:42PM 40.4639 -82.5961 45° Northeast 502 578 41,000  Level Indianapolis Center
01:43PM 40.5631 -82.4650 45° Northeast 502 578 41,000 -300 Level Indianapolis Center
01:44PM 40.6619 -82.3322 46° Northeast 503 579 40,400 -1,080 Descending Indianapolis Center
01:45PM 40.7594 -82.2000 46° Northeast 499 574 38,900 -1,560 Descending Indianapolis Center
01:46PM 40.8303 -82.1061 45° Northeast 499 574 37,900 -1,500 Descending Cleveland Center
01:47PM 40.9300 -81.9711 46° Northeast 499 574 36,500 -1,260 Descending Cleveland Center
01:48PM 41.0297 -81.8328 46° Northeast 506 582 35,400 -1,080 Descending Cleveland Center
01:49PM 41.1292 -81.6942 46° Northeast 501 577 34,400 -960 Descending Cleveland Center
01:50PM 41.2219 -81.5714 45° Northeast 510 587 33,500 -1,080 Descending Cleveland Center
01:51PM 41.3231 -81.4319 46° Northeast 510 587 32,300 -2,100 Descending Cleveland Center
01:52PM 41.4325 -81.2811 46° Northeast 510 587 29,400 -4,140 Descending Cleveland Center
01:53PM 41.5333 -81.1433 46° Northeast 510 587 24,000 -2,640 Descending Cleveland Center
01:54PM 41.6403 -81.0194 41° Northeast 505 581 24,200 -1,260 Climbing Cleveland Center
01:55PM 41.7200 -80.8753 53° Northeast 494 568 21,600 -2,640 Descending Cleveland Center
01:56PM 41.7764 -80.7139 65° Northeast 480 552 19,000 -2,700 Descending Cleveland Center
01:57PM 41.8328 -80.5775 61° Northeast 447 514 16,300 -2,940 Descending Cleveland Center
01:58PM 41.8953 -80.4800 49° Northeast 388 447 13,200 -2,700 Descending Cleveland Center
01:59PM 41.9556 -80.3794 51° Northeast 345 397 11,000 -1,680 Descending Cleveland Center
02:00PM 42.0033 -80.2842 56° Northeast 334 384 9,900 -2,220 Descending Cleveland Center
02:01PM 42.0217 -80.1667 78° East 301 346 6,600 -2,880 Descending Cleveland Center
02:02PM 42.0422 -80.0631 75° East 296 341 4,200 -1,680 Descending Cleveland Center
02:03PM 42.0922 -80.0544 North 159 183 3,300 -960 Descending Cleveland Center
02:04PM 42.1194 -80.0878 318° Northwest 133 153 2,300 10,320 Descending Cleveland Center
02:05PM 42.1653 -80.0986 350° North 133 153 24,000 10,800 Climbing Cleveland Center
02:06PM 42.2028 -80.1122 345° North 133 153 24,000  Level Cleveland Center
02:08PM 42.0831 -80.1739 259° West  Level Estimated